Terminal Aerodrome Forecast
Issued by NWS

Home | Current Version | Previous Version | Text Only | Print | Product List | Glossary On
Versions: 1 2 3 4 5 6 7 8 9 10 11 12 13 14 15 16 17 18 19 20 21 22 23 24 25 26 27 28 29 30 31 32 33 34 35 36
968
FTUS44 KOUN 291739
TAFGAG
TAF
KGAG 291739Z 2918/3018 14010KT P6SM BKN080
      TEMPO 2918/2922 3SM TSRA BR OVC025CB
     FM300000 17011KT P6SM SCT025 BKN100
      TEMPO 3012/3015 BKN025=

USA.gov is the U.S. government's official web portal to all federal, state and local government web resources and services.